createdAt,value
2023-05-20T00:01:49.225Z,6.60
2023-05-20T00:04:16.222Z,6.88
2023-05-20T00:06:42.954Z,6.92
2023-05-20T00:09:10.137Z,6.94
2023-05-20T00:11:36.976Z,6.95
2023-05-20T00:14:03.704Z,7.04
2023-05-20T00:16:30.426Z,7.12
2023-05-20T00:18:57.451Z,7.24
2023-05-20T00:21:24.229Z,7.23
2023-05-20T00:23:51.258Z,7.22
2023-05-20T00:26:17.838Z,7.09
2023-05-20T00:28:44.557Z,7.09
2023-05-20T00:31:11.187Z,6.84
2023-05-20T00:33:38.006Z,6.92
2023-05-20T00:36:05.096Z,6.80
2023-05-20T00:38:31.695Z,6.73
2023-05-20T00:40:58.299Z,6.63
2023-05-20T00:43:25.565Z,6.55
2023-05-20T00:45:54.158Z,6.49
2023-05-20T00:48:22.276Z,6.46
2023-05-20T00:50:50.567Z,6.36
2023-05-20T00:53:21.536Z,6.26
2023-05-20T00:55:48.622Z,6.27
2023-05-20T00:58:15.497Z,6.19
2023-05-20T01:00:42.924Z,6.17
2023-05-20T01:03:11.020Z,6.10
2023-05-20T01:05:39.849Z,6.39
2023-05-20T01:08:08.353Z,6.41
2023-05-20T01:10:39.365Z,6.38
2023-05-20T01:13:11.596Z,6.34
2023-05-20T01:15:41.035Z,6.25
2023-05-20T01:18:10.833Z,6.28
2023-05-20T01:20:37.974Z,6.39
2023-05-20T01:23:04.689Z,6.33
2023-05-20T01:25:31.425Z,6.69
2023-05-20T01:27:58.765Z,6.74
2023-05-20T01:30:41.502Z,6.76
2023-05-20T01:33:12.411Z,6.81
2023-05-20T01:35:41.488Z,6.81
2023-05-20T01:38:08.705Z,6.80
2023-05-20T01:40:36.257Z,6.71
2023-05-20T01:43:03.511Z,6.78
2023-05-20T01:45:31.347Z,6.79
2023-05-20T01:47:58.082Z,6.74
2023-05-20T01:50:24.809Z,6.70
2023-05-20T01:52:51.582Z,6.65
2023-05-20T01:55:18.405Z,6.40
2023-05-20T01:57:45.100Z,6.60
2023-05-20T02:00:12.265Z,6.53
2023-05-20T02:02:39.165Z,6.53
2023-05-20T02:05:06.115Z,6.47
2023-05-20T02:07:32.857Z,6.44
2023-05-20T02:09:59.552Z,6.49
2023-05-20T02:12:26.387Z,6.49
2023-05-20T02:14:53.007Z,6.55
2023-05-20T02:17:20.044Z,6.53
2023-05-20T02:19:47.353Z,6.43
2023-05-20T02:22:14.458Z,6.41
2023-05-20T02:24:41.695Z,6.23
2023-05-20T02:27:08.413Z,6.31
2023-05-20T02:29:35.325Z,6.27
2023-05-20T02:32:01.960Z,6.28
2023-05-20T02:34:30.438Z,6.45
2023-05-20T02:36:57.392Z,6.53
2023-05-20T02:39:24.112Z,6.50
2023-05-20T02:41:50.791Z,6.51
2023-05-20T02:44:18.182Z,6.73
2023-05-20T02:46:44.942Z,6.76
2023-05-20T02:49:11.786Z,6.78
2023-05-20T02:51:38.668Z,6.81
2023-05-20T02:54:05.528Z,6.69
2023-05-20T02:56:32.542Z,6.86
2023-05-20T02:58:59.291Z,6.75
2023-05-20T03:01:25.987Z,6.76
2023-05-20T03:03:52.898Z,6.82
2023-05-20T03:06:19.629Z,6.75
2023-05-20T03:08:46.322Z,6.64
2023-05-20T03:11:13.007Z,6.58
2023-05-20T03:13:42.641Z,6.62
2023-05-20T03:16:09.567Z,6.70
2023-05-20T03:18:37.705Z,6.61
2023-05-20T03:21:04.599Z,6.50
2023-05-20T03:23:31.262Z,6.40
2023-05-20T03:25:58.262Z,6.33
2023-05-20T03:28:24.850Z,6.22
2023-05-20T03:30:51.796Z,6.10
2023-05-20T03:33:18.478Z,6.14
2023-05-20T03:35:45.119Z,6.12
2023-05-20T03:38:11.813Z,6.04
2023-05-20T03:40:38.788Z,6.04
2023-05-20T03:43:05.645Z,6.06
2023-05-20T03:45:33.998Z,6.09
2023-05-20T03:48:00.897Z,6.23
2023-05-20T03:50:27.733Z,6.26
2023-05-20T03:52:54.498Z,6.21
2023-05-20T03:55:21.390Z,6.14
2023-05-20T03:57:48.056Z,6.11
2023-05-20T04:00:14.961Z,6.11
2023-05-20T04:02:42.032Z,6.11
2023-05-20T04:05:10.700Z,6.08
2023-05-20T04:07:37.635Z,6.04
2023-05-20T04:10:05.422Z,5.96
2023-05-20T04:12:32.780Z,6.03
2023-05-20T04:15:01.392Z,6.09
2023-05-20T04:17:30.185Z,6.08
2023-05-20T04:19:59.887Z,6.17
2023-05-20T04:22:27.203Z,6.19
2023-05-20T04:24:53.971Z,6.34
2023-05-20T04:27:21.680Z,6.46
2023-05-20T04:29:48.666Z,6.55
2023-05-20T04:32:18.902Z,6.76
2023-05-20T04:34:46.332Z,6.93
2023-05-20T04:37:13.937Z,7.04
2023-05-20T04:39:40.664Z,7.27
2023-05-20T04:42:07.417Z,7.48
2023-05-20T04:44:34.537Z,7.69
2023-05-20T04:47:01.585Z,7.77
2023-05-20T04:49:30.023Z,7.91
2023-05-20T04:52:00.882Z,8.08
2023-05-20T04:54:27.785Z,8.22
2023-05-20T04:56:54.474Z,8.35
2023-05-20T04:59:21.494Z,8.48
2023-05-20T05:01:48.224Z,8.67
2023-05-20T05:04:14.943Z,8.82
2023-05-20T05:06:41.751Z,9.01
2023-05-20T05:09:08.896Z,9.67
2023-05-20T05:11:35.764Z,10.89
2023-05-20T05:14:02.446Z,11.65
2023-05-20T05:16:29.158Z,12.54
2023-05-20T05:18:56.117Z,12.77
2023-05-20T05:21:22.795Z,13.56
2023-05-20T05:23:49.486Z,14.30
2023-05-20T05:26:16.256Z,14.18
2023-05-20T05:28:45.550Z,14.58
2023-05-20T05:31:12.164Z,14.72
2023-05-20T05:33:39.172Z,13.98
2023-05-20T05:36:06.596Z,14.92
2023-05-20T05:38:33.355Z,14.78
2023-05-20T05:41:00.062Z,14.95
2023-05-20T05:43:26.813Z,14.75
2023-05-20T05:45:53.497Z,14.77
2023-05-20T05:48:20.398Z,14.93
2023-05-20T05:50:47.346Z,15.55
2023-05-20T05:53:14.123Z,15.68
2023-05-20T05:55:40.881Z,16.00
2023-05-20T05:58:07.702Z,15.11
2023-05-20T06:00:34.508Z,14.57
2023-05-20T06:03:01.528Z,14.24
2023-05-20T06:05:29.811Z,14.13
2023-05-20T06:07:56.795Z,14.28
2023-05-20T06:10:23.769Z,14.49
2023-05-20T06:12:50.529Z,14.99
2023-05-20T06:15:18.449Z,15.38
2023-05-20T06:17:45.243Z,16.10
2023-05-20T06:20:12.482Z,16.13
2023-05-20T06:22:39.318Z,16.16
2023-05-20T06:25:06.521Z,16.05
2023-05-20T06:27:33.393Z,16.73
2023-05-20T06:30:00.351Z,16.22
2023-05-20T06:32:27.958Z,16.34
2023-05-20T06:34:54.617Z,16.14
2023-05-20T06:37:24.398Z,16.10
2023-05-20T06:39:54.063Z,16.02
2023-05-20T06:42:21.638Z,16.22
2023-05-20T06:44:48.384Z,15.95
2023-05-20T06:47:16.908Z,15.92
2023-05-20T06:49:47.163Z,16.01
2023-05-20T06:52:14.449Z,16.46
2023-05-20T06:54:41.839Z,17.06
2023-05-20T06:57:09.406Z,16.98
2023-05-20T06:59:37.361Z,17.02
2023-05-20T07:02:04.290Z,17.05
2023-05-20T07:04:31.105Z,17.14
2023-05-20T07:06:57.816Z,17.08
2023-05-20T07:09:24.834Z,17.08
2023-05-20T07:11:51.589Z,16.54
2023-05-20T07:14:18.293Z,16.36
2023-05-20T07:16:44.953Z,16.52
2023-05-20T07:19:11.909Z,16.18
2023-05-20T07:21:38.941Z,15.83
2023-05-20T07:24:06.004Z,15.32
2023-05-20T07:26:36.363Z,15.23
2023-05-20T07:29:05.916Z,15.12
2023-05-20T07:31:32.666Z,15.16
2023-05-20T07:33:59.391Z,15.08
2023-05-20T07:36:29.685Z,15.22
2023-05-20T07:39:03.084Z,15.12
2023-05-20T07:41:32.140Z,15.43
2023-05-20T07:43:58.754Z,15.63
2023-05-20T07:46:25.552Z,16.51
2023-05-20T07:48:52.220Z,16.79
2023-05-20T07:51:19.129Z,17.12
2023-05-20T07:53:45.846Z,17.49
2023-05-20T07:56:12.628Z,17.74
2023-05-20T07:58:42.224Z,17.85
2023-05-20T08:01:09.886Z,17.80
2023-05-20T08:03:36.987Z,18.17
2023-05-20T08:06:03.946Z,17.30
2023-05-20T08:08:30.858Z,17.10
2023-05-20T08:10:57.452Z,17.06
2023-05-20T08:13:24.777Z,17.95
2023-05-20T08:15:55.655Z,18.86
2023-05-20T08:18:23.106Z,18.55
2023-05-20T08:20:50.995Z,17.56
2023-05-20T08:23:17.702Z,16.79
2023-05-20T08:25:46.931Z,16.31
2023-05-20T08:28:13.749Z,15.75
2023-05-20T08:30:41.486Z,15.20
2023-05-20T08:33:11.246Z,15.44
2023-05-20T08:35:39.633Z,16.02
2023-05-20T08:38:07.865Z,16.18
2023-05-20T08:40:37.558Z,16.09
2023-05-20T08:43:04.751Z,15.70
2023-05-20T08:45:33.797Z,15.54
2023-05-20T08:48:01.732Z,15.69
2023-05-20T08:50:28.411Z,15.90
2023-05-20T08:52:55.229Z,15.75
2023-05-20T08:55:42.121Z,15.67
2023-05-20T08:58:10.207Z,15.78
2023-05-20T09:00:37.487Z,15.38
2023-05-20T09:03:05.537Z,15.16
2023-05-20T09:05:32.407Z,15.10
2023-05-20T09:08:10.365Z,15.26
2023-05-20T09:10:41.681Z,15.59
2023-05-20T09:13:10.620Z,16.97
2023-05-20T09:15:37.789Z,17.23
2023-05-20T09:18:06.117Z,17.33
2023-05-20T09:20:35.185Z,16.68
2023-05-20T09:23:05.651Z,16.54
2023-05-20T09:25:34.444Z,16.33
2023-05-20T09:28:01.359Z,16.56
2023-05-20T09:30:28.122Z,16.39
2023-05-20T09:32:56.987Z,15.90
2023-05-20T09:35:26.435Z,16.10
2023-05-20T09:37:55.007Z,16.49
2023-05-20T09:40:26.235Z,16.54
2023-05-20T09:42:58.531Z,16.34
2023-05-20T09:45:25.318Z,16.07
2023-05-20T09:47:55.131Z,15.87
2023-05-20T09:50:23.497Z,16.00
2023-05-20T09:52:52.413Z,15.83
2023-05-20T09:55:21.936Z,15.72
2023-05-20T09:57:49.149Z,15.75
2023-05-20T10:00:20.039Z,15.78
2023-05-20T10:02:49.133Z,16.05
2023-05-20T10:05:30.221Z,16.30
2023-05-20T10:08:20.907Z,16.06
2023-05-20T10:11:16.827Z,15.73
2023-05-20T10:14:09.146Z,15.97
2023-05-20T10:16:50.681Z,15.99
2023-05-20T10:19:32.756Z,15.87
2023-05-20T10:22:11.424Z,16.05
2023-05-20T10:24:43.519Z,15.91
2023-05-20T10:27:14.321Z,15.91
2023-05-20T10:29:55.098Z,16.13
2023-05-20T10:32:29.982Z,15.90
2023-05-20T10:35:01.889Z,15.70
2023-05-20T10:37:30.829Z,15.75
2023-05-20T10:40:11.638Z,15.69
2023-05-20T10:42:39.105Z,15.52
2023-05-20T10:45:11.697Z,15.65
2023-05-20T10:47:54.125Z,15.79
2023-05-20T10:50:50.528Z,15.72
2023-05-20T10:53:29.655Z,15.70
2023-05-20T10:55:59.968Z,15.70
2023-05-20T10:58:26.785Z,15.62
2023-05-20T11:00:55.000Z,15.67
2023-05-20T11:03:23.119Z,15.64
2023-05-20T11:05:50.716Z,15.38
2023-05-20T11:08:28.700Z,15.58
2023-05-20T11:10:59.163Z,15.99
2023-05-20T11:13:26.349Z,16.21
2023-05-20T11:15:53.412Z,16.30
2023-05-20T11:18:20.523Z,16.50
2023-05-20T11:20:47.437Z,16.58
2023-05-20T11:23:15.485Z,16.37
2023-05-20T11:25:42.122Z,16.35
2023-05-20T11:28:14.570Z,16.38
2023-05-20T11:30:43.312Z,16.37
2023-05-20T11:33:13.258Z,16.47
2023-05-20T11:35:52.043Z,16.71
2023-05-20T11:38:20.355Z,16.93
2023-05-20T11:40:52.007Z,16.41
2023-05-20T11:43:20.146Z,16.17
2023-05-20T11:45:48.124Z,16.06
2023-05-20T11:48:17.972Z,16.18
2023-05-20T11:50:46.792Z,16.11
2023-05-20T11:53:18.850Z,16.13
2023-05-20T11:55:49.350Z,16.13
2023-05-20T11:58:24.207Z,15.92
2023-05-20T12:00:57.077Z,16.07
2023-05-20T12:03:33.177Z,15.92
2023-05-20T12:06:12.045Z,15.78
2023-05-20T12:08:39.028Z,15.82
2023-05-20T12:11:05.841Z,15.65
2023-05-20T12:13:34.988Z,15.52
2023-05-20T12:16:02.188Z,15.52
2023-05-20T12:18:28.986Z,15.47
2023-05-20T12:20:55.671Z,15.25
2023-05-20T12:23:22.312Z,15.49
2023-05-20T12:25:50.177Z,15.50
2023-05-20T12:28:17.841Z,15.40
2023-05-20T12:30:44.514Z,15.42
2023-05-20T12:33:11.131Z,15.32
2023-05-20T12:35:41.002Z,15.33
2023-05-20T12:38:08.315Z,15.35
2023-05-20T12:40:35.791Z,15.48
2023-05-20T12:43:04.833Z,15.70
2023-05-20T12:45:31.904Z,16.00
2023-05-20T12:47:59.384Z,16.05
2023-05-20T12:50:26.750Z,16.28
2023-05-20T12:52:53.598Z,16.45
2023-05-20T12:55:20.426Z,16.34
2023-05-20T12:57:47.657Z,16.26
2023-05-20T13:00:16.114Z,15.96
2023-05-20T13:02:43.973Z,15.91
2023-05-20T13:05:12.404Z,15.81
2023-05-20T13:07:42.231Z,15.91
2023-05-20T13:10:10.978Z,16.08
2023-05-20T13:12:38.286Z,15.72
2023-05-20T13:15:06.648Z,15.88
2023-05-20T13:17:33.488Z,15.82
2023-05-20T13:20:00.231Z,15.65
2023-05-20T13:22:26.946Z,15.73
2023-05-20T13:24:53.639Z,15.82
2023-05-20T13:27:20.361Z,15.91
2023-05-20T13:29:47.155Z,15.81
2023-05-20T13:32:13.899Z,16.01
2023-05-20T13:34:43.661Z,16.02
2023-05-20T13:37:10.877Z,16.32
2023-05-20T13:39:37.648Z,16.57
2023-05-20T13:42:04.478Z,16.39
2023-05-20T13:44:32.564Z,16.65
2023-05-20T13:46:59.607Z,16.86
2023-05-20T13:49:26.332Z,17.04
2023-05-20T13:51:53.078Z,16.92
2023-05-20T13:54:21.716Z,16.82
2023-05-20T13:56:48.701Z,17.15
2023-05-20T13:59:15.468Z,17.03
2023-05-20T14:01:45.695Z,16.87
2023-05-20T14:04:13.082Z,16.66
2023-05-20T14:06:40.628Z,16.75
2023-05-20T14:09:10.978Z,16.88
2023-05-20T14:11:37.746Z,17.07
2023-05-20T14:14:04.487Z,17.01
2023-05-20T14:16:31.987Z,17.36
2023-05-20T14:18:58.960Z,17.62
2023-05-20T14:21:25.882Z,17.63
2023-05-20T14:23:52.573Z,17.71
2023-05-20T14:26:19.305Z,17.95
2023-05-20T14:28:46.124Z,18.00
2023-05-20T14:31:12.922Z,17.97
2023-05-20T14:33:39.689Z,18.13
2023-05-20T14:36:06.836Z,17.97
2023-05-20T14:38:33.629Z,18.03
2023-05-20T14:41:00.456Z,18.42
2023-05-20T14:43:27.264Z,18.45
2023-05-20T14:45:53.986Z,18.29
2023-05-20T14:48:20.801Z,18.58
2023-05-20T14:50:49.005Z,18.63
2023-05-20T14:53:17.307Z,18.35
2023-05-20T14:55:44.097Z,18.12
2023-05-20T14:58:12.366Z,18.05
2023-05-20T15:00:39.501Z,18.17
2023-05-20T15:03:06.541Z,18.26
2023-05-20T15:05:33.597Z,18.09
2023-05-20T15:08:00.616Z,18.88
2023-05-20T15:10:27.174Z,18.30
2023-05-20T15:12:53.917Z,18.00
2023-05-20T15:15:21.597Z,18.44
2023-05-20T15:17:48.478Z,18.27
2023-05-20T15:20:15.170Z,18.56
2023-05-20T15:22:44.151Z,18.70
2023-05-20T15:25:10.893Z,18.26
2023-05-20T15:27:37.676Z,18.12
2023-05-20T15:30:04.768Z,17.87
2023-05-20T15:32:31.552Z,17.62
2023-05-20T15:34:58.531Z,17.60
2023-05-20T15:37:25.161Z,17.41
2023-05-20T15:39:51.936Z,17.39
2023-05-20T15:42:18.837Z,17.34
2023-05-20T15:44:45.930Z,17.11
2023-05-20T15:47:12.846Z,17.18
2023-05-20T15:49:39.690Z,16.98
2023-05-20T15:52:06.654Z,17.02
2023-05-20T15:54:33.319Z,16.80
2023-05-20T15:57:00.170Z,16.53
2023-05-20T15:59:26.917Z,16.49
2023-05-20T16:01:53.739Z,16.43
2023-05-20T16:04:20.838Z,16.34
2023-05-20T16:06:47.815Z,16.29
2023-05-20T16:09:14.532Z,16.20
2023-05-20T16:11:41.208Z,16.00
2023-05-20T16:14:07.851Z,16.08
2023-05-20T16:16:36.238Z,16.01
2023-05-20T16:19:03.398Z,15.99
2023-05-20T16:21:30.246Z,15.88
2023-05-20T16:23:56.957Z,15.78
2023-05-20T16:26:24.863Z,15.87
2023-05-20T16:28:51.562Z,16.01
2023-05-20T16:31:18.329Z,16.34
2023-05-20T16:33:45.024Z,16.50
2023-05-20T16:36:12.166Z,16.81
2023-05-20T16:38:39.289Z,17.13
2023-05-20T16:41:06.083Z,17.13
2023-05-20T16:43:32.742Z,17.34
2023-05-20T16:45:59.686Z,17.26
2023-05-20T16:48:26.835Z,17.17
2023-05-20T16:50:53.639Z,17.24
2023-05-20T16:53:20.763Z,17.23
2023-05-20T16:55:47.809Z,17.15
2023-05-20T16:58:14.543Z,17.19
2023-05-20T17:00:41.660Z,17.05
2023-05-20T17:03:08.451Z,16.71
2023-05-20T17:05:35.159Z,16.50
2023-05-20T17:08:02.081Z,16.26
2023-05-20T17:10:29.654Z,16.18
2023-05-20T17:12:56.498Z,16.17
2023-05-20T17:15:23.797Z,16.36
2023-05-20T17:17:50.818Z,16.24
2023-05-20T17:20:17.707Z,16.08
2023-05-20T17:22:44.550Z,16.00
2023-05-20T17:25:11.489Z,15.83
2023-05-20T17:27:38.393Z,16.00
2023-05-20T17:30:05.753Z,16.03
2023-05-20T17:32:32.530Z,15.96
2023-05-20T17:34:59.339Z,15.99
2023-05-20T17:37:26.209Z,15.87
2023-05-20T17:39:52.914Z,15.83
2023-05-20T17:42:19.612Z,15.74
2023-05-20T17:44:46.601Z,15.50
2023-05-20T17:47:13.492Z,15.27
2023-05-20T17:49:43.360Z,15.09
2023-05-20T17:52:11.118Z,14.89
2023-05-20T17:54:37.854Z,14.75
2023-05-20T17:57:04.673Z,14.32
2023-05-20T17:59:33.900Z,14.54
2023-05-20T18:02:01.219Z,14.23
2023-05-20T18:04:28.524Z,14.41
2023-05-20T18:06:55.170Z,14.45
2023-05-20T18:09:21.848Z,14.40
2023-05-20T18:11:48.511Z,14.32
2023-05-20T18:14:18.696Z,14.22
2023-05-20T18:16:45.539Z,14.17
2023-05-20T18:19:12.254Z,14.06
2023-05-20T18:21:39.145Z,14.01
2023-05-20T18:24:06.160Z,13.86
2023-05-20T18:26:33.459Z,13.89
2023-05-20T18:29:00.066Z,13.87
2023-05-20T18:31:27.092Z,13.70
2023-05-20T18:33:53.888Z,13.77
2023-05-20T18:36:20.742Z,13.68
2023-05-20T18:38:47.590Z,13.58
2023-05-20T18:41:14.406Z,13.51
2023-05-20T18:43:41.232Z,13.30
2023-05-20T18:46:07.915Z,13.31
2023-05-20T18:48:34.606Z,13.22
2023-05-20T18:51:01.297Z,13.16
2023-05-20T18:53:27.957Z,13.07
2023-05-20T18:55:56.125Z,12.96
2023-05-20T18:58:22.820Z,12.82
2023-05-20T19:00:49.645Z,12.67
2023-05-20T19:03:17.101Z,12.48
2023-05-20T19:05:43.916Z,12.33
2023-05-20T19:08:10.729Z,12.23
2023-05-20T19:10:37.362Z,12.09
2023-05-20T19:13:04.024Z,11.93
2023-05-20T19:15:31.297Z,11.84
2023-05-20T19:17:58.025Z,11.87
2023-05-20T19:20:26.137Z,11.90
2023-05-20T19:22:53.272Z,11.86
2023-05-20T19:25:20.106Z,11.83
2023-05-20T19:27:46.802Z,11.73
2023-05-20T19:30:13.573Z,11.73
2023-05-20T19:32:40.952Z,11.66
2023-05-20T19:35:11.605Z,11.55
2023-05-20T19:37:38.455Z,11.48
2023-05-20T19:40:06.718Z,11.37
2023-05-20T19:42:33.484Z,11.33
2023-05-20T19:45:00.059Z,11.27
2023-05-20T19:47:27.197Z,11.18
2023-05-20T19:49:54.900Z,11.17
2023-05-20T19:52:21.545Z,11.12
2023-05-20T19:54:48.280Z,11.13
2023-05-20T19:57:14.892Z,11.03
2023-05-20T19:59:41.837Z,11.06
2023-05-20T20:02:09.073Z,11.07
2023-05-20T20:04:36.207Z,11.08
2023-05-20T20:07:03.547Z,11.08
2023-05-20T20:09:30.337Z,11.00
2023-05-20T20:11:57.570Z,10.98
2023-05-20T20:14:25.344Z,10.93
2023-05-20T20:16:52.313Z,10.93
2023-05-20T20:19:22.832Z,10.94
2023-05-20T20:21:53.102Z,10.98
2023-05-20T20:24:20.408Z,10.97
2023-05-20T20:26:47.599Z,10.92
2023-05-20T20:29:14.959Z,10.95
2023-05-20T20:31:41.869Z,10.86
2023-05-20T20:34:10.915Z,10.83
2023-05-20T20:36:37.631Z,10.81
2023-05-20T20:39:07.000Z,10.79
2023-05-20T20:41:33.696Z,10.78
2023-05-20T20:44:03.574Z,10.78
2023-05-20T20:46:31.098Z,10.76
2023-05-20T20:48:58.009Z,10.75
2023-05-20T20:51:24.784Z,10.68
2023-05-20T20:53:52.530Z,10.73
2023-05-20T20:56:19.283Z,10.70
2023-05-20T20:58:46.432Z,10.68
2023-05-20T21:01:17.706Z,10.51
2023-05-20T21:03:45.143Z,10.69
2023-05-20T21:06:15.149Z,10.69
2023-05-20T21:08:42.682Z,10.42
2023-05-20T21:11:09.530Z,10.68
2023-05-20T21:13:37.683Z,10.67
2023-05-20T21:16:06.724Z,10.67
2023-05-20T21:18:33.397Z,10.61
2023-05-20T21:21:00.395Z,10.68
2023-05-20T21:23:27.181Z,10.63
2023-05-20T21:25:53.843Z,10.58
2023-05-20T21:28:20.842Z,10.60
2023-05-20T21:30:47.460Z,10.60
2023-05-20T21:33:14.233Z,10.63
2023-05-20T21:35:40.881Z,10.63
2023-05-20T21:38:07.525Z,10.62
2023-05-20T21:40:34.111Z,10.63
2023-05-20T21:43:00.850Z,10.62
2023-05-20T21:45:27.524Z,10.57
2023-05-20T21:47:54.318Z,10.61
2023-05-20T21:50:21.161Z,10.62
2023-05-20T21:52:47.883Z,10.63
2023-05-20T21:55:14.712Z,10.59
2023-05-20T21:57:41.641Z,10.57
2023-05-20T22:00:15.199Z,10.56
2023-05-20T22:02:42.145Z,10.53
2023-05-20T22:05:09.407Z,10.54
2023-05-20T22:07:36.320Z,10.52
2023-05-20T22:10:03.720Z,10.51
2023-05-20T22:12:30.956Z,10.45
2023-05-20T22:14:57.740Z,10.54
2023-05-20T22:17:24.983Z,10.53
2023-05-20T22:19:52.009Z,10.51
2023-05-20T22:22:19.725Z,10.50
2023-05-20T22:24:46.426Z,10.42
2023-05-20T22:27:13.157Z,10.43
2023-05-20T22:29:40.667Z,10.42
2023-05-20T22:32:07.419Z,10.36
2023-05-20T22:34:34.130Z,10.43
2023-05-20T22:37:00.919Z,10.44
2023-05-20T22:39:27.628Z,10.43
2023-05-20T22:41:54.583Z,10.45
2023-05-20T22:44:21.548Z,10.43
2023-05-20T22:46:48.230Z,10.43
2023-05-20T22:49:15.590Z,10.44
2023-05-20T22:51:42.775Z,10.45
2023-05-20T22:54:09.736Z,10.45
2023-05-20T22:56:36.444Z,10.45
2023-05-20T22:59:03.361Z,10.44
2023-05-20T23:01:30.064Z,10.39
2023-05-20T23:03:56.853Z,10.40
2023-05-20T23:06:23.569Z,10.34
2023-05-20T23:08:50.267Z,10.36
2023-05-20T23:11:16.863Z,10.33
2023-05-20T23:13:43.678Z,10.33
2023-05-20T23:16:13.309Z,10.34
2023-05-20T23:18:43.791Z,10.33
2023-05-20T23:21:10.726Z,10.31
2023-05-20T23:23:37.506Z,10.30
2023-05-20T23:26:05.255Z,10.30
2023-05-20T23:28:32.172Z,10.29
2023-05-20T23:30:59.207Z,10.23
2023-05-20T23:33:26.115Z,10.21
2023-05-20T23:35:53.213Z,10.19
2023-05-20T23:38:19.909Z,10.16
2023-05-20T23:40:46.559Z,10.10
2023-05-20T23:43:13.430Z,10.12
2023-05-20T23:45:41.096Z,10.04
2023-05-20T23:48:11.217Z,10.07
2023-05-20T23:50:38.205Z,9.99
2023-05-20T23:53:05.803Z,10.04
2023-05-20T23:55:32.507Z,10.06
2023-05-20T23:57:59.189Z,10.05
